createdAt,value
2022-11-30T00:00:22.566Z,100.63
2022-11-30T00:02:56.014Z,112.50
2022-11-30T00:05:22.999Z,97.20
2022-11-30T00:07:50.154Z,92.95
2022-11-30T00:10:17.193Z,102.78
2022-11-30T00:12:43.603Z,117.30
2022-11-30T00:15:13.930Z,98.35
2022-11-30T00:17:41.207Z,90.32
2022-11-30T00:20:09.124Z,88.68
2022-11-30T00:22:35.816Z,102.30
2022-11-30T00:25:04.665Z,90.55
2022-11-30T00:27:32.426Z,93.22
2022-11-30T00:29:59.135Z,92.60
2022-11-30T00:32:26.621Z,89.03
2022-11-30T00:34:53.074Z,87.13
2022-11-30T00:37:19.966Z,92.32
2022-11-30T00:39:46.389Z,94.85
2022-11-30T00:42:13.405Z,92.70
2022-11-30T00:44:39.918Z,101.60
2022-11-30T00:47:06.348Z,109.18
2022-11-30T00:49:33.838Z,95.20
2022-11-30T00:52:01.139Z,95.22
2022-11-30T00:54:27.710Z,99.78
2022-11-30T00:56:54.361Z,100.88
2022-11-30T00:59:20.816Z,118.78
2022-11-30T01:01:47.474Z,98.50
2022-11-30T01:04:13.896Z,109.15
2022-11-30T01:06:40.404Z,126.20
2022-11-30T01:09:06.877Z,91.70
2022-11-30T01:11:33.343Z,105.78
2022-11-30T01:14:00.517Z,88.65
2022-11-30T01:16:30.449Z,97.18
2022-11-30T01:18:57.110Z,89.97
2022-11-30T01:21:26.383Z,87.50
2022-11-30T01:23:53.581Z,89.35
2022-11-30T01:26:20.598Z,72.63
2022-11-30T01:28:52.696Z,64.47
2022-11-30T01:31:20.691Z,55.78
2022-11-30T01:33:51.783Z,49.60
2022-11-30T01:36:21.582Z,52.80
2022-11-30T01:38:53.481Z,52.47
2022-11-30T01:41:23.715Z,46.15
2022-11-30T01:44:20.067Z,47.95
2022-11-30T01:46:54.553Z,52.78
2022-11-30T01:49:28.584Z,50.92
2022-11-30T01:52:20.592Z,51.40
2022-11-30T01:54:53.894Z,48.97
2022-11-30T01:57:34.136Z,56.05
2022-11-30T02:00:02.589Z,53.83
2022-11-30T02:02:47.590Z,57.95
2022-11-30T02:05:16.074Z,55.97
2022-11-30T02:07:42.889Z,51.97
2022-11-30T02:10:25.461Z,51.85
2022-11-30T02:13:18.146Z,48.47
2022-11-30T02:15:55.106Z,49.17
2022-11-30T02:18:31.583Z,50.92
2022-11-30T02:21:10.656Z,48.22
2022-11-30T02:23:59.971Z,52.08
2022-11-30T02:26:53.679Z,43.70
2022-11-30T02:29:25.013Z,40.47
2022-11-30T02:32:04.960Z,42.25
2022-11-30T02:34:34.896Z,43.75
2022-11-30T02:37:03.140Z,39.80
2022-11-30T02:39:29.585Z,38.15
2022-11-30T02:41:56.169Z,39.70
2022-11-30T02:44:23.952Z,38.60
2022-11-30T02:46:54.397Z,39.40
2022-11-30T02:49:34.929Z,35.40
2022-11-30T02:52:02.475Z,37.88
2022-11-30T02:54:28.952Z,37.22
2022-11-30T02:56:55.327Z,37.67
2022-11-30T02:59:24.863Z,40.38
2022-11-30T03:01:51.568Z,37.83
2022-11-30T03:04:18.023Z,35.10
2022-11-30T03:06:44.426Z,35.50
2022-11-30T03:09:10.789Z,37.28
2022-11-30T03:11:37.233Z,37.10
2022-11-30T03:14:03.759Z,37.05
2022-11-30T03:16:30.235Z,37.35
2022-11-30T03:18:58.013Z,38.28
2022-11-30T03:21:24.888Z,40.22
2022-11-30T03:23:51.460Z,36.53
2022-11-30T03:26:17.861Z,39.25
2022-11-30T03:28:44.251Z,40.05
2022-11-30T03:31:12.705Z,37.83
2022-11-30T03:33:42.418Z,38.75
2022-11-30T03:36:10.966Z,40.45
2022-11-30T03:38:37.755Z,39.97
2022-11-30T03:41:06.887Z,38.80
2022-11-30T03:43:33.281Z,34.60
2022-11-30T03:45:59.788Z,38.88
2022-11-30T03:48:26.603Z,36.72
2022-11-30T03:50:53.063Z,38.65
2022-11-30T03:53:21.586Z,37.83
2022-11-30T03:55:56.611Z,36.00
2022-11-30T03:58:23.947Z,36.78
2022-11-30T04:00:51.192Z,37.42
2022-11-30T04:03:17.864Z,37.42
2022-11-30T04:05:44.275Z,35.38
2022-11-30T04:08:10.669Z,38.03
2022-11-30T04:10:37.063Z,34.00
2022-11-30T04:13:03.581Z,39.25
2022-11-30T04:15:29.981Z,39.72
2022-11-30T04:17:56.363Z,36.22
2022-11-30T04:20:22.762Z,41.80
2022-11-30T04:22:49.126Z,41.42
2022-11-30T04:25:15.573Z,39.00
2022-11-30T04:27:45.608Z,40.15
2022-11-30T04:30:12.602Z,40.05
2022-11-30T04:32:39.034Z,41.10
2022-11-30T04:35:05.918Z,40.25
2022-11-30T04:37:32.279Z,41.65
2022-11-30T04:39:58.985Z,44.25
2022-11-30T04:42:25.361Z,41.90
2022-11-30T04:44:51.741Z,44.72
2022-11-30T04:47:18.162Z,42.35
2022-11-30T04:49:44.572Z,37.45
2022-11-30T04:52:11.003Z,42.35
2022-11-30T04:54:37.382Z,39.50
2022-11-30T04:57:03.815Z,43.50
2022-11-30T04:59:30.200Z,41.80
2022-11-30T05:01:56.966Z,39.65
2022-11-30T05:04:23.514Z,37.45
2022-11-30T05:06:50.000Z,41.67
2022-11-30T05:09:16.442Z,38.90
2022-11-30T05:11:43.389Z,42.55
2022-11-30T05:14:09.816Z,42.33
2022-11-30T05:16:36.234Z,42.33
2022-11-30T05:19:02.670Z,40.83
2022-11-30T05:21:29.055Z,39.88
2022-11-30T05:23:55.456Z,39.10
2022-11-30T05:26:21.904Z,41.10
2022-11-30T05:28:48.316Z,40.05
2022-11-30T05:31:14.713Z,40.85
2022-11-30T05:33:41.136Z,38.03
2022-11-30T05:36:10.959Z,38.05
2022-11-30T05:38:37.830Z,37.65
2022-11-30T05:41:04.329Z,38.05
2022-11-30T05:43:30.704Z,37.15
2022-11-30T05:46:01.240Z,37.35
2022-11-30T05:48:27.930Z,42.95
2022-11-30T05:50:54.416Z,37.05
2022-11-30T05:53:21.000Z,36.67
2022-11-30T05:55:47.391Z,38.92
2022-11-30T05:58:13.848Z,38.72
2022-11-30T06:00:40.304Z,40.97
2022-11-30T06:03:06.756Z,41.22
2022-11-30T06:05:34.182Z,41.72
2022-11-30T06:08:00.853Z,42.83
2022-11-30T06:10:27.321Z,45.35
2022-11-30T06:12:53.742Z,41.80
2022-11-30T06:15:20.352Z,44.25
2022-11-30T06:17:46.744Z,49.60
2022-11-30T06:20:13.906Z,45.70
2022-11-30T06:22:40.561Z,43.38
2022-11-30T06:25:07.183Z,41.40
2022-11-30T06:27:33.631Z,44.60
2022-11-30T06:30:00.073Z,41.20
2022-11-30T06:32:26.422Z,45.17
2022-11-30T06:34:52.975Z,43.08
2022-11-30T06:37:19.347Z,42.85
2022-11-30T06:42:32.396Z,41.33
2022-11-30T06:44:58.834Z,41.78
2022-11-30T06:47:25.516Z,44.45
2022-11-30T06:49:51.953Z,42.22
2022-11-30T06:52:18.389Z,43.92
2022-11-30T06:54:46.219Z,42.85
2022-11-30T06:57:12.799Z,44.92
2022-11-30T06:59:43.362Z,42.75
2022-11-30T07:02:17.504Z,43.83
2022-11-30T07:04:45.239Z,43.75
2022-11-30T07:07:11.763Z,41.20
2022-11-30T07:09:38.209Z,42.80
2022-11-30T07:12:05.014Z,39.70
2022-11-30T07:14:31.471Z,43.15
2022-11-30T07:16:58.118Z,41.10
2022-11-30T07:19:24.778Z,41.97
2022-11-30T07:21:51.267Z,44.88
2022-11-30T07:24:36.440Z,43.13
2022-11-30T07:27:03.988Z,45.35
2022-11-30T07:29:30.424Z,44.72
2022-11-30T07:31:56.953Z,43.03
2022-11-30T07:34:23.488Z,47.58
2022-11-30T07:36:49.907Z,39.95
2022-11-30T07:39:16.295Z,41.08
2022-11-30T07:41:42.727Z,45.88
2022-11-30T07:44:10.181Z,46.55
2022-11-30T07:46:37.859Z,44.33
2022-11-30T07:49:09.609Z,43.63
2022-11-30T07:51:37.113Z,41.25
2022-11-30T07:54:03.662Z,41.55
2022-11-30T07:56:30.086Z,41.53
2022-11-30T07:58:59.908Z,42.85
2022-11-30T08:01:31.871Z,43.45
2022-11-30T08:03:58.928Z,42.95
2022-11-30T08:06:27.953Z,43.97
2022-11-30T08:08:57.704Z,42.03
2022-11-30T08:11:30.545Z,43.35
2022-11-30T08:13:57.281Z,44.30
2022-11-30T08:16:26.314Z,42.05
2022-11-30T08:18:55.154Z,43.97
2022-11-30T08:21:22.462Z,41.35
2022-11-30T08:23:51.378Z,44.13
2022-11-30T08:26:23.754Z,41.97
2022-11-30T08:28:51.245Z,40.25
2022-11-30T08:31:20.636Z,39.60
2022-11-30T08:33:47.333Z,42.28
2022-11-30T08:36:19.348Z,42.30
2022-11-30T08:38:47.023Z,41.13
2022-11-30T08:41:16.644Z,43.55
2022-11-30T08:43:43.324Z,42.75
2022-11-30T08:46:42.442Z,41.55
2022-11-30T08:49:19.854Z,46.03
2022-11-30T08:52:16.018Z,43.42
2022-11-30T08:54:31.576Z,41.42
2022-11-30T08:56:59.130Z,42.75
2022-11-30T08:59:25.666Z,42.72
2022-11-30T09:01:52.091Z,43.78
2022-11-30T09:04:18.465Z,38.45
2022-11-30T09:06:44.939Z,41.40
2022-11-30T09:09:11.332Z,45.30
2022-11-30T09:11:37.710Z,43.42
2022-11-30T09:14:04.767Z,50.95
2022-11-30T09:16:31.453Z,49.58
2022-11-30T09:18:58.126Z,48.00
2022-11-30T09:21:25.364Z,52.63
2022-11-30T09:23:52.492Z,50.05
2022-11-30T09:26:21.335Z,48.03
2022-11-30T09:28:47.957Z,57.53
2022-11-30T09:31:18.142Z,51.67
2022-11-30T09:33:44.973Z,50.17
2022-11-30T09:36:13.588Z,50.67
2022-11-30T09:38:42.381Z,52.83
2022-11-30T09:41:25.865Z,51.92
2022-11-30T09:44:01.317Z,50.70
2022-11-30T09:46:40.638Z,52.72
2022-11-30T09:49:18.807Z,52.83
2022-11-30T09:51:47.404Z,53.63
2022-11-30T09:54:19.255Z,52.10
2022-11-30T09:56:46.415Z,51.22
2022-11-30T09:59:24.777Z,52.78
2022-11-30T10:01:56.716Z,49.63
2022-11-30T10:04:26.198Z,49.92
2022-11-30T10:07:14.292Z,49.58
2022-11-30T10:10:09.380Z,51.53
2022-11-30T10:12:50.729Z,49.47
2022-11-30T10:15:32.796Z,52.30
2022-11-30T10:18:13.835Z,50.05
2022-11-30T10:20:59.850Z,52.83
2022-11-30T10:23:53.726Z,50.20
2022-11-30T10:26:35.352Z,45.78
2022-11-30T10:29:17.379Z,42.38
2022-11-30T10:31:46.354Z,46.45
2022-11-30T10:34:20.355Z,49.13
2022-11-30T10:37:24.319Z,46.63
2022-11-30T10:39:56.822Z,45.13
2022-11-30T10:42:37.814Z,42.20
2022-11-30T10:45:11.202Z,43.17
2022-11-30T10:50:14.940Z,41.70
2022-11-30T10:52:50.858Z,41.13
2022-11-30T10:55:34.430Z,38.42
2022-11-30T10:58:09.667Z,44.33
2022-11-30T11:00:36.062Z,38.65
2022-11-30T11:03:02.472Z,39.70
2022-11-30T11:05:31.576Z,41.33
2022-11-30T11:08:07.076Z,39.22
2022-11-30T11:10:39.952Z,36.97
2022-11-30T11:13:15.299Z,40.83
2022-11-30T11:15:59.643Z,37.72
2022-11-30T11:18:31.628Z,39.72
2022-11-30T11:21:17.666Z,39.20
2022-11-30T11:23:45.614Z,38.47
2022-11-30T11:26:23.987Z,39.15
2022-11-30T11:28:52.884Z,38.45
2022-11-30T11:31:31.549Z,36.53
2022-11-30T11:33:58.269Z,37.35
2022-11-30T11:36:28.707Z,33.15
2022-11-30T11:38:56.026Z,41.08
2022-11-30T11:41:34.814Z,36.03
2022-11-30T11:44:10.113Z,39.75
2022-11-30T11:47:01.442Z,36.60
2022-11-30T11:49:35.657Z,37.90
2022-11-30T11:52:09.575Z,40.88
2022-11-30T11:54:56.400Z,35.58
2022-11-30T11:57:34.276Z,36.28
2022-11-30T12:00:18.955Z,38.33
2022-11-30T12:02:54.891Z,33.42
2022-11-30T12:05:27.872Z,35.95
2022-11-30T12:08:15.784Z,32.78
2022-11-30T12:10:52.752Z,38.00
2022-11-30T12:13:22.817Z,33.70
2022-11-30T12:16:05.130Z,35.80
2022-11-30T12:19:11.608Z,34.65
2022-11-30T12:21:56.781Z,35.58
2022-11-30T12:25:08.219Z,35.88
2022-11-30T12:27:39.707Z,34.40
2022-11-30T12:30:21.816Z,37.28
2022-11-30T12:33:03.473Z,36.50
2022-11-30T12:36:00.089Z,31.00
2022-11-30T12:38:26.416Z,34.20
2022-11-30T12:41:07.252Z,34.22
2022-11-30T12:43:59.219Z,35.03
2022-11-30T12:46:25.591Z,36.70
2022-11-30T12:49:05.376Z,39.58
2022-11-30T12:51:46.989Z,35.72
2022-11-30T12:54:31.930Z,37.35
2022-11-30T12:57:27.344Z,38.67
2022-11-30T13:00:13.863Z,39.20
2022-11-30T13:02:46.339Z,34.03
2022-11-30T13:05:22.745Z,35.08
2022-11-30T13:07:57.770Z,35.47
2022-11-30T13:10:37.209Z,34.35
2022-11-30T13:13:05.225Z,34.67
2022-11-30T13:15:35.026Z,33.90
2022-11-30T13:18:03.491Z,32.10
2022-11-30T13:21:10.386Z,36.60
2022-11-30T13:24:08.351Z,38.63
2022-11-30T13:26:45.507Z,35.83
2022-11-30T13:29:39.840Z,35.00
2022-11-30T13:32:33.781Z,36.67
2022-11-30T13:35:37.668Z,35.63
2022-11-30T13:38:35.711Z,34.85
2022-11-30T13:41:03.184Z,35.85
2022-11-30T13:43:35.036Z,33.50
2022-11-30T13:46:13.036Z,35.42
2022-11-30T13:48:43.978Z,35.70
2022-11-30T13:51:11.520Z,36.17
2022-11-30T13:53:39.523Z,35.72
2022-11-30T13:56:17.875Z,39.45
2022-11-30T13:59:19.568Z,39.53
2022-11-30T14:01:46.072Z,38.42
2022-11-30T14:04:15.697Z,34.50
2022-11-30T14:06:42.004Z,35.38
2022-11-30T14:09:16.248Z,33.20
2022-11-30T14:11:44.329Z,33.42
2022-11-30T14:14:45.435Z,37.60
2022-11-30T14:17:26.829Z,34.35
2022-11-30T14:19:58.656Z,30.02
2022-11-30T14:22:27.386Z,30.77
2022-11-30T14:24:54.735Z,33.30
2022-11-30T14:27:24.851Z,32.83
2022-11-30T14:29:55.911Z,33.17
2022-11-30T14:32:33.081Z,32.97
2022-11-30T14:35:08.004Z,31.98
2022-11-30T14:37:42.857Z,32.50
2022-11-30T14:40:19.154Z,31.67
2022-11-30T14:42:54.375Z,32.95
2022-11-30T14:45:27.557Z,31.33
2022-11-30T14:48:15.576Z,32.55
2022-11-30T14:51:03.421Z,33.08
2022-11-30T14:53:54.972Z,34.00
2022-11-30T14:56:33.036Z,32.92
2022-11-30T14:59:16.614Z,37.45
2022-11-30T15:01:43.370Z,38.47
2022-11-30T15:04:16.152Z,31.45
2022-11-30T15:06:43.526Z,37.53
2022-11-30T15:09:19.065Z,33.83
2022-11-30T15:11:47.423Z,32.65
2022-11-30T15:14:14.280Z,32.38
2022-11-30T15:16:58.687Z,32.97
2022-11-30T15:19:31.231Z,31.15
2022-11-30T15:21:58.988Z,32.27
2022-11-30T15:24:26.996Z,34.30
2022-11-30T15:26:58.123Z,32.53
2022-11-30T15:29:27.168Z,32.40
2022-11-30T15:31:56.484Z,34.33
2022-11-30T15:34:50.169Z,30.40
2022-11-30T15:37:19.339Z,29.00
2022-11-30T15:39:54.032Z,31.48
2022-11-30T15:42:27.470Z,31.98
2022-11-30T15:47:39.136Z,30.25
2022-11-30T15:50:28.571Z,30.40
2022-11-30T15:53:00.887Z,32.03
2022-11-30T15:55:47.668Z,30.85
2022-11-30T15:58:29.253Z,32.00
2022-11-30T16:01:08.753Z,31.40
2022-11-30T16:04:08.252Z,33.90
2022-11-30T16:06:46.290Z,31.33
2022-11-30T16:09:33.085Z,28.48
2022-11-30T16:12:02.064Z,30.30
2022-11-30T16:14:28.682Z,30.58
2022-11-30T16:16:55.763Z,31.35
2022-11-30T16:19:22.775Z,32.15
2022-11-30T16:21:49.848Z,29.90
2022-11-30T16:24:16.913Z,31.42
2022-11-30T16:26:50.970Z,30.05
2022-11-30T16:29:18.031Z,33.25
2022-11-30T16:31:44.480Z,31.55
2022-11-30T16:34:11.613Z,30.30
2022-11-30T16:36:38.820Z,33.92
2022-11-30T16:39:05.697Z,31.98
2022-11-30T16:41:34.919Z,31.92
2022-11-30T16:44:01.563Z,30.73
2022-11-30T16:46:29.665Z,28.90
2022-11-30T16:48:56.301Z,31.42
2022-11-30T16:51:27.978Z,31.15
2022-11-30T16:53:55.049Z,29.55
2022-11-30T16:56:21.742Z,28.33
2022-11-30T16:58:48.544Z,30.33
2022-11-30T17:01:33.264Z,30.33
2022-11-30T17:04:12.012Z,30.95
2022-11-30T17:06:38.478Z,29.85
2022-11-30T17:09:04.862Z,28.20
2022-11-30T17:11:34.096Z,29.85
2022-11-30T17:14:00.789Z,30.52
2022-11-30T17:16:27.460Z,31.50
2022-11-30T17:18:53.965Z,27.10
2022-11-30T17:21:26.437Z,29.08
2022-11-30T17:23:52.874Z,30.57
2022-11-30T17:26:19.271Z,31.20
2022-11-30T17:28:45.849Z,31.15
2022-11-30T17:31:13.100Z,32.28
2022-11-30T17:33:44.938Z,32.03
2022-11-30T17:36:15.796Z,34.00
2022-11-30T17:38:43.916Z,32.42
2022-11-30T17:41:18.560Z,32.83
2022-11-30T17:43:45.926Z,35.63
2022-11-30T17:46:15.541Z,35.25
2022-11-30T17:48:42.890Z,34.95
2022-11-30T17:51:10.339Z,33.83
2022-11-30T17:53:38.128Z,33.60
2022-11-30T17:56:07.469Z,33.60
2022-11-30T17:58:41.458Z,34.35
2022-11-30T18:01:22.169Z,39.83
2022-11-30T18:03:49.307Z,35.83
2022-11-30T18:06:16.078Z,36.28
2022-11-30T18:08:42.847Z,33.95
2022-11-30T18:11:11.369Z,40.22
2022-11-30T18:13:38.540Z,32.95
2022-11-30T18:16:13.073Z,32.22
2022-11-30T18:18:45.800Z,30.90
2022-11-30T18:21:16.608Z,33.92
2022-11-30T18:23:43.058Z,30.85
2022-11-30T18:26:15.445Z,28.33
2022-11-30T18:28:42.395Z,29.75
2022-11-30T18:31:09.105Z,29.23
2022-11-30T18:33:36.540Z,28.95
2022-11-30T18:36:07.199Z,29.65
2022-11-30T18:38:38.035Z,33.45
2022-11-30T18:41:05.518Z,27.77
2022-11-30T18:43:33.307Z,28.52
2022-11-30T18:46:04.409Z,28.35
2022-11-30T18:48:30.938Z,27.10
2022-11-30T18:50:57.401Z,26.75
2022-11-30T18:53:23.776Z,30.48
2022-11-30T18:55:50.182Z,26.98
2022-11-30T18:58:16.867Z,25.60
2022-11-30T19:00:43.274Z,27.67
2022-11-30T19:03:10.032Z,31.90
2022-11-30T19:05:38.169Z,32.28
2022-11-30T19:08:07.636Z,31.42
2022-11-30T19:10:36.241Z,32.53
2022-11-30T19:13:04.004Z,28.27
2022-11-30T19:15:41.611Z,27.63
2022-11-30T19:18:10.948Z,28.38
2022-11-30T19:20:40.576Z,27.70
2022-11-30T19:23:07.142Z,26.35
2022-11-30T19:25:33.602Z,28.25
2022-11-30T19:28:00.007Z,26.60
2022-11-30T19:30:26.503Z,26.73
2022-11-30T19:32:53.565Z,26.65
2022-11-30T19:35:20.668Z,24.90
2022-11-30T19:37:47.059Z,24.88
2022-11-30T19:40:13.477Z,23.55
2022-11-30T19:42:39.836Z,24.80
2022-11-30T19:45:06.806Z,24.38
2022-11-30T19:47:33.313Z,23.55
2022-11-30T19:49:59.723Z,20.40
2022-11-30T19:52:26.176Z,25.55
2022-11-30T19:54:52.548Z,24.90
2022-11-30T19:57:18.926Z,23.02
2022-11-30T19:59:46.136Z,23.10
2022-11-30T20:02:12.844Z,22.30
2022-11-30T20:04:39.616Z,22.48
2022-11-30T20:07:05.987Z,23.60
2022-11-30T20:09:32.855Z,20.65
2022-11-30T20:11:59.229Z,21.75
2022-11-30T20:14:25.599Z,22.50
2022-11-30T20:16:52.897Z,20.17
2022-11-30T20:19:19.372Z,20.38
2022-11-30T20:21:45.981Z,22.10
2022-11-30T20:24:12.370Z,19.50
2022-11-30T20:26:41.491Z,20.70
2022-11-30T20:29:13.342Z,20.08
2022-11-30T20:31:40.258Z,20.23
2022-11-30T20:34:08.080Z,19.05
2022-11-30T20:36:35.095Z,20.92
2022-11-30T20:39:02.780Z,18.50
2022-11-30T20:41:29.429Z,19.00
2022-11-30T20:43:56.119Z,18.85
2022-11-30T20:46:23.618Z,18.92
2022-11-30T20:48:50.933Z,16.10
2022-11-30T20:51:30.563Z,17.10
2022-11-30T20:53:59.528Z,18.13
2022-11-30T20:56:25.931Z,19.27
2022-11-30T20:58:52.321Z,17.02
2022-11-30T21:01:21.263Z,15.75
2022-11-30T21:03:48.279Z,18.00
2022-11-30T21:06:15.667Z,17.13
2022-11-30T21:08:42.417Z,17.63
2022-11-30T21:11:11.257Z,17.25
2022-11-30T21:13:38.650Z,16.35
2022-11-30T21:16:07.210Z,16.55
2022-11-30T21:18:38.519Z,17.65
2022-11-30T21:21:11.853Z,16.45
2022-11-30T21:23:38.709Z,18.63
2022-11-30T21:26:07.343Z,15.80
2022-11-30T21:28:38.040Z,17.35
2022-11-30T21:31:05.686Z,17.58
2022-11-30T21:33:32.900Z,17.70
2022-11-30T21:35:59.391Z,17.00
2022-11-30T21:38:25.773Z,17.58
2022-11-30T21:41:00.073Z,16.70
2022-11-30T21:43:30.171Z,17.83
2022-11-30T21:45:59.333Z,17.52
2022-11-30T21:48:27.769Z,18.20
2022-11-30T21:51:11.867Z,21.17
2022-11-30T21:53:40.696Z,18.55
2022-11-30T21:56:12.684Z,19.27
2022-11-30T21:58:41.035Z,20.20
2022-11-30T22:01:11.276Z,20.55
2022-11-30T22:03:37.688Z,21.60
2022-11-30T22:06:05.684Z,19.08
2022-11-30T22:08:33.158Z,21.70
2022-11-30T22:11:21.061Z,21.60
2022-11-30T22:13:54.706Z,19.90
2022-11-30T22:16:23.180Z,23.30
2022-11-30T22:18:53.364Z,23.90
2022-11-30T22:21:28.730Z,25.27
2022-11-30T22:24:04.294Z,24.10
2022-11-30T22:26:33.982Z,24.92
2022-11-30T22:29:11.061Z,24.70
2022-11-30T22:31:40.379Z,25.52
2022-11-30T22:34:07.046Z,24.88
2022-11-30T22:36:35.567Z,26.70
2022-11-30T22:39:05.976Z,27.25
2022-11-30T22:41:33.321Z,26.52
2022-11-30T22:43:59.789Z,28.95
2022-11-30T22:46:33.971Z,31.95
2022-11-30T22:49:05.735Z,31.08
2022-11-30T22:51:34.218Z,30.23
2022-11-30T22:54:01.063Z,36.33
2022-11-30T22:56:30.584Z,36.58
2022-11-30T22:59:01.406Z,35.15
2022-11-30T23:01:28.954Z,38.15
2022-11-30T23:03:57.233Z,35.92
2022-11-30T23:06:24.471Z,41.30
2022-11-30T23:08:52.069Z,39.42
2022-11-30T23:11:21.050Z,40.08
2022-11-30T23:13:47.672Z,35.50
2022-11-30T23:16:15.460Z,41.33
2022-11-30T23:18:54.545Z,38.50
2022-11-30T23:21:38.900Z,39.40
2022-11-30T23:24:09.617Z,45.65
2022-11-30T23:26:38.083Z,43.33
2022-11-30T23:29:10.607Z,40.13
2022-11-30T23:31:39.647Z,45.30
2022-11-30T23:34:08.701Z,45.25
2022-11-30T23:36:36.462Z,53.80
2022-11-30T23:39:11.608Z,47.47
2022-11-30T23:41:38.645Z,45.20
2022-11-30T23:44:05.566Z,46.08
2022-11-30T23:46:32.020Z,49.83
2022-11-30T23:48:58.530Z,50.30
2022-11-30T23:51:25.510Z,44.47
2022-11-30T23:53:52.674Z,47.53
2022-11-30T23:56:20.589Z,42.75
2022-11-30T23:58:47.750Z,45.13
